»·PEaware :: NKS788 KSAN-KLAS

NKS788 :: KSAN-KLAS

FLIGHT INFORMATION

Flight Status: Arrived
Operator:
Spirit Airlines
More flights by this operator :: More flights under this callsign
Pilot: Josh T. (20631)
Aircraft: AIRBUS A320
(A320)
More flights by this aircraft type
Origin: KSAN San Diego Intl-Lindbergh
United States
Destination: KLAS McCarran Intl
United States
More flights between these airports :: More routes between these airports
Route: ++ MISEN KEPEC6
File this flight plan on PilotEdge
Remarks:
Altitude:
(Current/Filed)
29,000ft
Speed:
(Current/Filed)
450kts
Departed: 11-Jan-20 03:59 PM
Arrived: 11-Jan-20 04:54 PM
Distance/Time
Traveled:
225nm/0:54
Distance/Time
To Go:
Arrived

Flight Plot

Page will automatically refresh every two minutes.

Flight plan parsing failed; only flown route is shown


Map Options




Map Legend


Flown Route
Filed Route
Departure Airport
Arrival Airport
Navaid (VOR, NDB)
Fix

Horizontal Profiles

Position Reports

Time Latitude Longitude Heading Altitude Ground
Speed
11-Jan-20 15:09 32.733703 -117.199009 149 29ft 0kts
11-Jan-20 15:10 32.733703 -117.199009 149 29ft 0kts
11-Jan-20 15:11 32.733703 -117.199009 149 29ft 0kts
11-Jan-20 15:12 32.733703 -117.199009 149 29ft 0kts
11-Jan-20 15:13 32.733703 -117.199009 149 29ft 0kts
11-Jan-20 15:14 32.733703 -117.199009 149 29ft 0kts
11-Jan-20 15:15 32.733703 -117.199009 149 29ft 0kts
11-Jan-20 15:16 32.733703 -117.199009 149 29ft 0kts
11-Jan-20 15:17 32.733703 -117.199009 149 29ft 0kts
11-Jan-20 15:18 32.733703 -117.199009 149 29ft 0kts
11-Jan-20 15:19 32.733703 -117.199009 149 29ft 0kts
11-Jan-20 15:20 32.733703 -117.199009 149 29ft 0kts
11-Jan-20 15:21 32.733703 -117.199009 149 29ft 0kts
11-Jan-20 15:22 32.733703 -117.199009 149 29ft 0kts
11-Jan-20 15:23 32.733703 -117.199009 149 29ft 0kts
11-Jan-20 15:24 32.733703 -117.199009 149 29ft 0kts
11-Jan-20 15:25 32.733703 -117.199009 149 29ft 0kts
11-Jan-20 15:26 32.733703 -117.199009 149 29ft 0kts
11-Jan-20 15:27 32.733703 -117.199009 149 29ft 0kts
11-Jan-20 15:28 32.733703 -117.199009 149 29ft 0kts
11-Jan-20 15:29 32.733703 -117.199009 149 29ft 0kts
11-Jan-20 15:30 32.733703 -117.199009 149 29ft 0kts
11-Jan-20 15:31 32.733703 -117.199009 149 29ft 0kts
11-Jan-20 15:32 32.733703 -117.199009 149 29ft 0kts
11-Jan-20 15:33 32.733703 -117.199009 149 29ft 0kts
11-Jan-20 15:34 32.733703 -117.199009 149 29ft 0kts
11-Jan-20 15:35 32.733703 -117.199009 149 29ft 0kts
11-Jan-20 15:36 32.733703 -117.199009 149 29ft 0kts
11-Jan-20 15:37 32.733703 -117.199009 149 29ft 0kts
11-Jan-20 15:38 32.733703 -117.199009 149 29ft 0kts
11-Jan-20 15:39 32.733703 -117.199009 149 29ft 0kts
11-Jan-20 15:40 32.733703 -117.199009 149 29ft 0kts
11-Jan-20 15:41 32.733703 -117.199009 149 29ft 0kts
11-Jan-20 15:42 32.733703 -117.199009 149 29ft 0kts
11-Jan-20 15:43 32.733703 -117.199009 149 29ft 0kts
11-Jan-20 15:44 32.733703 -117.199009 149 29ft 0kts
11-Jan-20 15:45 32.733703 -117.199009 149 29ft 0kts
11-Jan-20 15:46 32.733703 -117.199009 149 29ft 0kts
11-Jan-20 15:47 32.734208 -117.199432 122 29ft 2kts
11-Jan-20 15:48 32.734257 -117.199610 12 29ft 0kts
11-Jan-20 15:49 32.734257 -117.199610 12 29ft 0kts
11-Jan-20 15:50 32.734258 -117.199610 12 29ft 0kts
11-Jan-20 15:51 32.734258 -117.199610 12 29ft 0kts
11-Jan-20 15:52 32.734545 -117.199537 12 29ft 8kts
11-Jan-20 15:53 32.734041 -117.195941 105 29ft 16kts
11-Jan-20 15:54 32.732513 -117.189632 105 29ft 20kts
11-Jan-20 15:55 32.731022 -117.183480 105 29ft 21kts
11-Jan-20 15:56 32.729503 -117.177185 97 29ft 4kts
11-Jan-20 15:57 32.730301 -117.176233 284 29ft 8kts
11-Jan-20 15:58 32.737050 -117.203575 287 770ft 154kts
11-Jan-20 15:59 32.763540 -117.252726 301 2819ft 205kts
11-Jan-20 16:00 32.799764 -117.318579 304 4975ft 259kts
11-Jan-20 16:01 32.844180 -117.387219 306 8322ft 264kts
11-Jan-20 16:02 32.889708 -117.458076 306 10981ft 286kts
11-Jan-20 16:03 32.942916 -117.540778 306 12435ft 333kts
11-Jan-20 16:04 32.999928 -117.629701 305 14722ft 343kts
11-Jan-20 16:05 33.058493 -117.721053 306 16815ft 352kts
11-Jan-20 16:06 33.133448 -117.800160 316 18735ft 365kts
11-Jan-20 16:08 33.211938 -117.879507 317 20504ft 374kts
11-Jan-20 16:09 33.293428 -117.958695 318 22104ft 382kts
11-Jan-20 16:10 33.399107 -117.979581 15 23506ft 433kts
11-Jan-20 16:11 33.499578 -117.891275 31 24807ft 456kts
11-Jan-20 16:12 33.601803 -117.799662 30 25967ft 463kts
11-Jan-20 16:13 33.705219 -117.704845 30 27229ft 467kts
11-Jan-20 16:14 33.808178 -117.611116 29 28635ft 465kts
11-Jan-20 16:15 33.909807 -117.517832 29 29149ft 453kts
11-Jan-20 16:16 34.010364 -117.425668 29 29148ft 453kts
11-Jan-20 16:17 34.110663 -117.333255 29 29151ft 455kts
11-Jan-20 16:18 34.211394 -117.240024 29 29142ft 455kts
11-Jan-20 16:19 34.311868 -117.146942 29 29089ft 456kts
11-Jan-20 16:20 34.412689 -117.053135 29 29071ft 458kts
11-Jan-20 16:21 34.513468 -116.959152 29 29103ft 458kts
11-Jan-20 16:22 34.614469 -116.864560 29 29090ft 458kts
11-Jan-20 16:23 34.715674 -116.769536 29 29035ft 459kts
11-Jan-20 16:24 34.815632 -116.675303 29 28707ft 444kts
11-Jan-20 16:25 34.912515 -116.584034 29 26591ft 435kts
11-Jan-20 16:26 35.007635 -116.493813 30 25603ft 431kts
11-Jan-20 16:26 35.086076 -116.419313 30 24778ft 427kts
11-Jan-20 16:28 35.185210 -116.299842 39 23624ft 428kts
11-Jan-20 16:28 35.253950 -116.213790 38 22802ft 423kts
11-Jan-20 16:30 35.348991 -116.094096 38 21245ft 417kts
11-Jan-20 16:31 35.429364 -115.992735 39 19137ft 414kts
11-Jan-20 16:31 35.495584 -115.908669 39 17339ft 405kts
11-Jan-20 16:32 35.572594 -115.810940 40 15220ft 390kts
11-Jan-20 16:33 35.646460 -115.716861 41 13205ft 374kts
11-Jan-20 16:34 35.713101 -115.631684 40 12987ft 319kts
11-Jan-20 16:35 35.781659 -115.571813 358 13005ft 293kts
11-Jan-20 16:36 35.862616 -115.569877 356 13002ft 292kts
11-Jan-20 16:37 35.944027 -115.564321 3 12999ft 296kts
11-Jan-20 16:38 35.997562 -115.487262 69 12171ft 326kts
11-Jan-20 16:39 36.026843 -115.387791 66 11415ft 296kts
11-Jan-20 16:40 36.024272 -115.287733 96 10255ft 289kts
11-Jan-20 16:41 36.017684 -115.190747 96 9229ft 276kts
11-Jan-20 16:42 36.010893 -115.098530 97 8412ft 256kts
11-Jan-20 16:43 36.005882 -115.015084 96 8001ft 240kts
11-Jan-20 16:44 36.001001 -114.933556 95 7055ft 236kts
11-Jan-20 16:45 35.995927 -114.850724 95 5627ft 248kts
11-Jan-20 16:46 36.014754 -114.780059 20 4987ft 227kts
11-Jan-20 16:47 36.062016 -114.815683 292 5014ft 224kts
11-Jan-20 16:48 36.074108 -114.886220 269 5007ft 200kts
11-Jan-20 16:49 36.073850 -114.952260 269 4877ft 189kts
11-Jan-20 16:50 36.073776 -115.016615 269 3928ft 185kts
11-Jan-20 16:51 36.073714 -115.076862 271 3012ft 150kts
11-Jan-20 16:52 36.073686 -115.126978 270 2219ft 146kts
11-Jan-20 16:53 36.073762 -115.152486 283 2195ft 21kts
11-Jan-20 16:54 36.076391 -115.157472 314 2195ft 17kts
11-Jan-20 16:55 36.078050 -115.157900 92 2195ft 6kts
11-Jan-20 16:56 36.078045 -115.153929 89 2195ft 10kts
11-Jan-20 16:57 36.081451 -115.154887 334 2195ft 19kts
11-Jan-20 16:58 36.083608 -115.154818 64 2195ft 2kts
11-Jan-20 16:59 36.084807 -115.154480 11 2195ft 0kts
11-Jan-20 17:00 36.084828 -115.154475 11 2195ft 0kts

Navigation Log

Ident Type
Flight plan parsing failed, navigation log unavailable